sensor_id;sensor_type;location;lat;lon;timestamp;P1;durP1;ratioP1;P2;durP2;ratioP2
9712;SDS011;4895;50.926;6.870;2023-02-25T00:01:08;23.50;;;4.67;;
9712;SDS011;4895;50.926;6.870;2023-02-25T00:03:36;22.17;;;4.60;;
9712;SDS011;4895;50.926;6.870;2023-02-25T00:06:02;17.37;;;3.70;;
9712;SDS011;4895;50.926;6.870;2023-02-25T00:08:28;19.50;;;4.70;;
9712;SDS011;4895;50.926;6.870;2023-02-25T00:10:57;22.47;;;4.20;;
9712;SDS011;4895;50.926;6.870;2023-02-25T00:13:24;19.97;;;5.77;;
9712;SDS011;4895;50.926;6.870;2023-02-25T00:15:49;26.40;;;4.77;;
9712;SDS011;4895;50.926;6.870;2023-02-25T00:18:14;16.20;;;4.90;;
9712;SDS011;4895;50.926;6.870;2023-02-25T00:20:39;15.80;;;4.30;;
9712;SDS011;4895;50.926;6.870;2023-02-25T00:23:05;22.10;;;4.87;;
9712;SDS011;4895;50.926;6.870;2023-02-25T00:25:30;20.23;;;5.50;;
9712;SDS011;4895;50.926;6.870;2023-02-25T00:27:56;20.30;;;5.60;;
9712;SDS011;4895;50.926;6.870;2023-02-25T00:30:21;25.83;;;5.53;;
9712;SDS011;4895;50.926;6.870;2023-02-25T00:32:48;21.73;;;5.13;;
9712;SDS011;4895;50.926;6.870;2023-02-25T00:35:13;18.90;;;5.87;;
9712;SDS011;4895;50.926;6.870;2023-02-25T00:37:39;23.77;;;5.27;;
9712;SDS011;4895;50.926;6.870;2023-02-25T00:40:04;32.50;;;5.07;;
9712;SDS011;4895;50.926;6.870;2023-02-25T00:42:34;29.83;;;5.20;;
9712;SDS011;4895;50.926;6.870;2023-02-25T00:44:59;23.27;;;5.17;;
9712;SDS011;4895;50.926;6.870;2023-02-25T00:47:25;26.20;;;6.43;;
9712;SDS011;4895;50.926;6.870;2023-02-25T00:49:50;23.47;;;6.10;;
9712;SDS011;4895;50.926;6.870;2023-02-25T00:52:16;17.57;;;4.80;;
9712;SDS011;4895;50.926;6.870;2023-02-25T00:54:41;18.67;;;4.60;;
9712;SDS011;4895;50.926;6.870;2023-02-25T00:57:07;23.07;;;4.77;;
9712;SDS011;4895;50.926;6.870;2023-02-25T00:59:32;27.97;;;5.27;;
9712;SDS011;4895;50.926;6.870;2023-02-25T01:01:57;15.77;;;4.03;;
9712;SDS011;4895;50.926;6.870;2023-02-25T01:04:23;19.20;;;4.67;;
9712;SDS011;4895;50.926;6.870;2023-02-25T01:06:49;17.43;;;4.07;;
9712;SDS011;4895;50.926;6.870;2023-02-25T01:09:14;25.13;;;5.17;;
9712;SDS011;4895;50.926;6.870;2023-02-25T01:11:41;19.80;;;5.07;;
9712;SDS011;4895;50.926;6.870;2023-02-25T01:14:12;18.37;;;4.13;;
9712;SDS011;4895;50.926;6.870;2023-02-25T01:16:43;12.20;;;4.53;;
9712;SDS011;4895;50.926;6.870;2023-02-25T01:19:11;17.77;;;3.63;;
9712;SDS011;4895;50.926;6.870;2023-02-25T01:21:39;15.83;;;4.10;;
9712;SDS011;4895;50.926;6.870;2023-02-25T01:24:15;19.37;;;4.27;;
9712;SDS011;4895;50.926;6.870;2023-02-25T01:26:52;14.53;;;3.13;;
9712;SDS011;4895;50.926;6.870;2023-02-25T01:29:20;17.57;;;3.70;;
9712;SDS011;4895;50.926;6.870;2023-02-25T01:31:51;23.80;;;3.60;;
9712;SDS011;4895;50.926;6.870;2023-02-25T01:34:17;18.57;;;3.17;;
9712;SDS011;4895;50.926;6.870;2023-02-25T01:36:42;15.03;;;2.93;;
9712;SDS011;4895;50.926;6.870;2023-02-25T01:39:08;18.60;;;3.13;;
9712;SDS011;4895;50.926;6.870;2023-02-25T01:41:34;14.60;;;2.97;;
9712;SDS011;4895;50.926;6.870;2023-02-25T01:44:01;16.63;;;3.70;;
9712;SDS011;4895;50.926;6.870;2023-02-25T01:46:28;19.30;;;3.50;;
9712;SDS011;4895;50.926;6.870;2023-02-25T01:48:54;27.27;;;3.23;;
9712;SDS011;4895;50.926;6.870;2023-02-25T01:51:21;15.60;;;2.80;;
9712;SDS011;4895;50.926;6.870;2023-02-25T01:53:51;12.93;;;3.70;;
9712;SDS011;4895;50.926;6.870;2023-02-25T01:56:16;19.73;;;3.67;;
9712;SDS011;4895;50.926;6.870;2023-02-25T01:58:44;15.23;;;4.00;;
9712;SDS011;4895;50.926;6.870;2023-02-25T02:01:11;16.57;;;3.57;;
9712;SDS011;4895;50.926;6.870;2023-02-25T02:03:38;19.73;;;3.63;;
9712;SDS011;4895;50.926;6.870;2023-02-25T02:08:38;21.83;;;3.90;;
9712;SDS011;4895;50.926;6.870;2023-02-25T02:11:04;14.77;;;4.10;;
9712;SDS011;4895;50.926;6.870;2023-02-25T02:13:30;28.20;;;4.90;;
9712;SDS011;4895;50.926;6.870;2023-02-25T02:16:05;17.27;;;4.90;;
9712;SDS011;4895;50.926;6.870;2023-02-25T02:18:36;12.33;;;3.80;;
9712;SDS011;4895;50.926;6.870;2023-02-25T02:21:19;12.73;;;2.97;;
9712;SDS011;4895;50.926;6.870;2023-02-25T02:24:13;11.40;;;2.53;;
9712;SDS011;4895;50.926;6.870;2023-02-25T02:26:55;17.23;;;3.37;;
9712;SDS011;4895;50.926;6.870;2023-02-25T02:45:24;14.83;;;3.33;;
9712;SDS011;4895;50.926;6.870;2023-02-25T02:48:01;17.87;;;3.60;;
9712;SDS011;4895;50.926;6.870;2023-02-25T02:50:29;17.20;;;3.30;;
9712;SDS011;4895;50.926;6.870;2023-02-25T02:52:58;24.50;;;3.43;;
9712;SDS011;4895;50.926;6.870;2023-02-25T02:55:37;21.73;;;3.27;;
9712;SDS011;4895;50.926;6.870;2023-02-25T02:58:16;20.53;;;3.37;;
9712;SDS011;4895;50.926;6.870;2023-02-25T03:00:47;10.10;;;3.67;;
9712;SDS011;4895;50.926;6.870;2023-02-25T03:03:16;20.97;;;4.17;;
9712;SDS011;4895;50.926;6.870;2023-02-25T03:05:44;8.80;;;3.37;;
9712;SDS011;4895;50.926;6.870;2023-02-25T03:08:14;17.53;;;3.60;;
9712;SDS011;4895;50.926;6.870;2023-02-25T03:10:43;17.40;;;3.87;;
9712;SDS011;4895;50.926;6.870;2023-02-25T03:13:09;20.23;;;3.10;;
9712;SDS011;4895;50.926;6.870;2023-02-25T03:15:35;27.47;;;4.40;;
9712;SDS011;4895;50.926;6.870;2023-02-25T03:18:04;17.60;;;4.63;;
9712;SDS011;4895;50.926;6.870;2023-02-25T03:20:39;19.90;;;3.90;;
9712;SDS011;4895;50.926;6.870;2023-02-25T03:23:08;22.27;;;3.43;;
9712;SDS011;4895;50.926;6.870;2023-02-25T03:25:37;29.30;;;5.73;;
9712;SDS011;4895;50.926;6.870;2023-02-25T03:36:31;18.33;;;3.97;;
9712;SDS011;4895;50.926;6.870;2023-02-25T03:39:01;10.90;;;3.00;;
9712;SDS011;4895;50.926;6.870;2023-02-25T03:41:34;26.20;;;3.53;;
9712;SDS011;4895;50.926;6.870;2023-02-25T03:44:03;20.77;;;3.80;;
9712;SDS011;4895;50.926;6.870;2023-02-25T03:46:32;17.00;;;3.03;;
9712;SDS011;4895;50.926;6.870;2023-02-25T03:48:58;14.97;;;4.27;;
9712;SDS011;4895;50.926;6.870;2023-02-25T03:51:26;21.30;;;2.60;;
9712;SDS011;4895;50.926;6.870;2023-02-25T03:53:53;24.00;;;3.60;;
9712;SDS011;4895;50.926;6.870;2023-02-25T03:56:19;11.83;;;3.60;;
9712;SDS011;4895;50.926;6.870;2023-02-25T03:58:45;23.20;;;4.43;;
9712;SDS011;4895;50.926;6.870;2023-02-25T04:01:15;17.23;;;3.60;;
9712;SDS011;4895;50.926;6.870;2023-02-25T04:03:43;24.47;;;3.97;;
9712;SDS011;4895;50.926;6.870;2023-02-25T04:06:09;13.43;;;3.73;;
9712;SDS011;4895;50.926;6.870;2023-02-25T04:08:36;11.30;;;3.50;;
9712;SDS011;4895;50.926;6.870;2023-02-25T04:11:01;22.47;;;4.10;;
9712;SDS011;4895;50.926;6.870;2023-02-25T04:13:26;19.50;;;3.60;;
9712;SDS011;4895;50.926;6.870;2023-02-25T04:15:52;12.03;;;3.53;;
9712;SDS011;4895;50.926;6.870;2023-02-25T04:18:17;22.10;;;4.30;;
9712;SDS011;4895;50.926;6.870;2023-02-25T04:20:42;15.97;;;3.60;;
9712;SDS011;4895;50.926;6.870;2023-02-25T04:23:12;19.33;;;4.00;;
9712;SDS011;4895;50.926;6.870;2023-02-25T04:25:38;24.90;;;4.80;;
9712;SDS011;4895;50.926;6.870;2023-02-25T04:28:03;16.10;;;3.40;;
9712;SDS011;4895;50.926;6.870;2023-02-25T04:30:29;23.43;;;5.33;;
9712;SDS011;4895;50.926;6.870;2023-02-25T04:32:54;17.00;;;4.10;;
9712;SDS011;4895;50.926;6.870;2023-02-25T04:35:19;14.33;;;3.20;;
9712;SDS011;4895;50.926;6.870;2023-02-25T04:37:44;25.33;;;3.70;;
9712;SDS011;4895;50.926;6.870;2023-02-25T04:40:14;24.73;;;4.43;;
9712;SDS011;4895;50.926;6.870;2023-02-25T04:42:42;16.27;;;3.60;;
9712;SDS011;4895;50.926;6.870;2023-02-25T04:45:08;18.93;;;3.50;;
9712;SDS011;4895;50.926;6.870;2023-02-25T04:47:34;23.00;;;3.77;;
9712;SDS011;4895;50.926;6.870;2023-02-25T04:50:00;19.93;;;3.07;;
9712;SDS011;4895;50.926;6.870;2023-02-25T04:52:26;26.30;;;3.50;;
9712;SDS011;4895;50.926;6.870;2023-02-25T04:54:51;16.97;;;4.03;;
9712;SDS011;4895;50.926;6.870;2023-02-25T04:57:16;11.80;;;3.60;;
9712;SDS011;4895;50.926;6.870;2023-02-25T04:59:42;20.20;;;3.70;;
9712;SDS011;4895;50.926;6.870;2023-02-25T05:02:07;16.53;;;3.47;;
9712;SDS011;4895;50.926;6.870;2023-02-25T05:04:33;22.50;;;3.70;;
9712;SDS011;4895;50.926;6.870;2023-02-25T05:06:59;24.97;;;4.10;;
9712;SDS011;4895;50.926;6.870;2023-02-25T05:09:25;15.53;;;3.30;;
9712;SDS011;4895;50.926;6.870;2023-02-25T05:11:50;18.33;;;3.30;;
9712;SDS011;4895;50.926;6.870;2023-02-25T05:14:15;14.77;;;3.13;;
9712;SDS011;4895;50.926;6.870;2023-02-25T05:16:41;23.63;;;4.23;;
9712;SDS011;4895;50.926;6.870;2023-02-25T05:19:06;13.73;;;3.03;;
9712;SDS011;4895;50.926;6.870;2023-02-25T05:21:31;24.17;;;3.30;;
9712;SDS011;4895;50.926;6.870;2023-02-25T05:23:57;19.07;;;3.33;;
9712;SDS011;4895;50.926;6.870;2023-02-25T05:26:22;14.57;;;3.00;;
9712;SDS011;4895;50.926;6.870;2023-02-25T05:28:52;33.47;;;3.50;;
9712;SDS011;4895;50.926;6.870;2023-02-25T05:31:19;27.93;;;3.60;;
9712;SDS011;4895;50.926;6.870;2023-02-25T05:33:45;12.40;;;3.10;;
9712;SDS011;4895;50.926;6.870;2023-02-25T05:36:11;13.87;;;2.63;;
9712;SDS011;4895;50.926;6.870;2023-02-25T05:38:38;16.93;;;3.27;;
9712;SDS011;4895;50.926;6.870;2023-02-25T05:41:05;21.20;;;2.73;;
9712;SDS011;4895;50.926;6.870;2023-02-25T05:43:31;16.57;;;2.80;;
9712;SDS011;4895;50.926;6.870;2023-02-25T05:45:58;18.13;;;2.90;;
9712;SDS011;4895;50.926;6.870;2023-02-25T05:48:25;19.60;;;2.80;;
9712;SDS011;4895;50.926;6.870;2023-02-25T05:50:51;18.87;;;3.27;;
9712;SDS011;4895;50.926;6.870;2023-02-25T05:53:17;19.03;;;3.23;;
9712;SDS011;4895;50.926;6.870;2023-02-25T05:55:43;14.40;;;3.47;;
9712;SDS011;4895;50.926;6.870;2023-02-25T05:58:08;17.67;;;2.60;;
9712;SDS011;4895;50.926;6.870;2023-02-25T06:00:34;20.20;;;3.60;;
9712;SDS011;4895;50.926;6.870;2023-02-25T06:03:00;13.97;;;3.33;;
9712;SDS011;4895;50.926;6.870;2023-02-25T06:05:25;20.40;;;3.60;;
9712;SDS011;4895;50.926;6.870;2023-02-25T06:07:50;21.47;;;3.73;;
9712;SDS011;4895;50.926;6.870;2023-02-25T06:10:16;17.40;;;4.13;;
9712;SDS011;4895;50.926;6.870;2023-02-25T06:12:41;23.23;;;3.30;;
9712;SDS011;4895;50.926;6.870;2023-02-25T06:15:07;15.10;;;3.00;;
9712;SDS011;4895;50.926;6.870;2023-02-25T06:17:32;17.30;;;2.90;;
9712;SDS011;4895;50.926;6.870;2023-02-25T06:19:58;15.73;;;3.00;;
9712;SDS011;4895;50.926;6.870;2023-02-25T06:22:23;20.30;;;3.87;;
9712;SDS011;4895;50.926;6.870;2023-02-25T06:24:48;22.33;;;3.57;;
9712;SDS011;4895;50.926;6.870;2023-02-25T06:27:14;15.80;;;2.97;;
9712;SDS011;4895;50.926;6.870;2023-02-25T06:29:39;22.70;;;3.50;;
9712;SDS011;4895;50.926;6.870;2023-02-25T06:32:06;15.63;;;3.90;;
9712;SDS011;4895;50.926;6.870;2023-02-25T06:34:37;16.00;;;2.77;;
9712;SDS011;4895;50.926;6.870;2023-02-25T06:37:03;19.83;;;3.80;;
9712;SDS011;4895;50.926;6.870;2023-02-25T06:39:29;18.37;;;3.73;;
9712;SDS011;4895;50.926;6.870;2023-02-25T06:41:54;20.53;;;3.60;;
9712;SDS011;4895;50.926;6.870;2023-02-25T06:44:20;18.00;;;5.13;;
9712;SDS011;4895;50.926;6.870;2023-02-25T06:46:45;20.20;;;4.20;;
9712;SDS011;4895;50.926;6.870;2023-02-25T06:49:10;27.13;;;4.40;;
9712;SDS011;4895;50.926;6.870;2023-02-25T06:51:36;16.80;;;3.93;;
9712;SDS011;4895;50.926;6.870;2023-02-25T06:54:02;28.50;;;3.90;;
9712;SDS011;4895;50.926;6.870;2023-02-25T06:56:28;26.03;;;4.70;;
9712;SDS011;4895;50.926;6.870;2023-02-25T06:58:54;24.20;;;4.90;;
9712;SDS011;4895;50.926;6.870;2023-02-25T07:01:22;29.30;;;4.00;;
9712;SDS011;4895;50.926;6.870;2023-02-25T07:03:48;21.27;;;4.40;;
9712;SDS011;4895;50.926;6.870;2023-02-25T07:06:13;14.10;;;3.90;;
9712;SDS011;4895;50.926;6.870;2023-02-25T07:08:39;25.97;;;3.50;;
9712;SDS011;4895;50.926;6.870;2023-02-25T07:13:37;18.03;;;3.87;;
9712;SDS011;4895;50.926;6.870;2023-02-25T07:16:02;20.80;;;4.17;;
9712;SDS011;4895;50.926;6.870;2023-02-25T07:18:28;22.80;;;4.03;;
9712;SDS011;4895;50.926;6.870;2023-02-25T07:20:53;20.57;;;3.70;;
9712;SDS011;4895;50.926;6.870;2023-02-25T07:23:18;15.63;;;3.70;;
9712;SDS011;4895;50.926;6.870;2023-02-25T07:25:44;18.23;;;3.60;;
9712;SDS011;4895;50.926;6.870;2023-02-25T07:28:10;22.67;;;3.20;;
9712;SDS011;4895;50.926;6.870;2023-02-25T07:30:35;29.90;;;4.00;;
9712;SDS011;4895;50.926;6.870;2023-02-25T07:33:01;16.40;;;3.10;;
9712;SDS011;4895;50.926;6.870;2023-02-25T07:35:26;21.30;;;3.67;;
9712;SDS011;4895;50.926;6.870;2023-02-25T07:37:51;21.10;;;3.77;;
9712;SDS011;4895;50.926;6.870;2023-02-25T07:40:17;27.20;;;4.63;;
9712;SDS011;4895;50.926;6.870;2023-02-25T07:42:43;37.20;;;4.60;;
9712;SDS011;4895;50.926;6.870;2023-02-25T07:45:08;18.07;;;4.50;;
9712;SDS011;4895;50.926;6.870;2023-02-25T07:47:35;17.00;;;3.93;;
9712;SDS011;4895;50.926;6.870;2023-02-25T07:50:01;18.17;;;4.30;;
9712;SDS011;4895;50.926;6.870;2023-02-25T07:52:27;19.80;;;4.00;;
9712;SDS011;4895;50.926;6.870;2023-02-25T07:54:52;21.23;;;4.50;;
9712;SDS011;4895;50.926;6.870;2023-02-25T07:57:17;22.23;;;4.73;;
9712;SDS011;4895;50.926;6.870;2023-02-25T07:59:43;29.00;;;5.07;;
9712;SDS011;4895;50.926;6.870;2023-02-25T08:02:09;30.80;;;4.90;;
9712;SDS011;4895;50.926;6.870;2023-02-25T08:04:35;21.50;;;4.20;;
9712;SDS011;4895;50.926;6.870;2023-02-25T08:07:01;18.70;;;4.77;;
9712;SDS011;4895;50.926;6.870;2023-02-25T08:09:26;26.87;;;4.77;;
9712;SDS011;4895;50.926;6.870;2023-02-25T08:11:52;28.67;;;4.77;;
9712;SDS011;4895;50.926;6.870;2023-02-25T08:14:17;22.00;;;4.77;;
9712;SDS011;4895;50.926;6.870;2023-02-25T08:16:42;19.17;;;4.73;;
9712;SDS011;4895;50.926;6.870;2023-02-25T08:19:08;15.93;;;4.17;;
9712;SDS011;4895;50.926;6.870;2023-02-25T08:21:33;27.50;;;4.73;;
9712;SDS011;4895;50.926;6.870;2023-02-25T08:23:59;21.90;;;4.87;;
9712;SDS011;4895;50.926;6.870;2023-02-25T08:26:24;23.70;;;4.20;;
9712;SDS011;4895;50.926;6.870;2023-02-25T08:28:51;21.23;;;5.43;;
9712;SDS011;4895;50.926;6.870;2023-02-25T08:31:17;27.50;;;5.07;;
9712;SDS011;4895;50.926;6.870;2023-02-25T08:33:43;26.13;;;4.33;;
9712;SDS011;4895;50.926;6.870;2023-02-25T08:36:14;15.10;;;3.93;;
9712;SDS011;4895;50.926;6.870;2023-02-25T08:38:41;30.33;;;4.77;;
9712;SDS011;4895;50.926;6.870;2023-02-25T08:41:07;19.93;;;4.33;;
9712;SDS011;4895;50.926;6.870;2023-02-25T08:43:33;28.83;;;3.83;;
9712;SDS011;4895;50.926;6.870;2023-02-25T08:45:59;30.53;;;4.43;;
9712;SDS011;4895;50.926;6.870;2023-02-25T08:48:24;26.00;;;4.20;;
9712;SDS011;4895;50.926;6.870;2023-02-25T08:50:50;27.20;;;4.93;;
9712;SDS011;4895;50.926;6.870;2023-02-25T08:53:15;23.23;;;3.20;;
9712;SDS011;4895;50.926;6.870;2023-02-25T08:55:40;29.47;;;4.63;;
9712;SDS011;4895;50.926;6.870;2023-02-25T08:58:06;22.80;;;4.27;;
9712;SDS011;4895;50.926;6.870;2023-02-25T09:00:31;20.00;;;3.87;;
9712;SDS011;4895;50.926;6.870;2023-02-25T09:02:57;21.03;;;4.27;;
9712;SDS011;4895;50.926;6.870;2023-02-25T09:05:22;26.70;;;4.53;;
9712;SDS011;4895;50.926;6.870;2023-02-25T09:07:48;16.63;;;3.33;;
9712;SDS011;4895;50.926;6.870;2023-02-25T09:10:14;21.67;;;3.80;;
9712;SDS011;4895;50.926;6.870;2023-02-25T09:12:40;23.83;;;3.37;;
9712;SDS011;4895;50.926;6.870;2023-02-25T09:15:07;10.37;;;2.90;;
9712;SDS011;4895;50.926;6.870;2023-02-25T09:17:33;21.87;;;3.70;;
9712;SDS011;4895;50.926;6.870;2023-02-25T09:19:58;16.70;;;4.20;;
9712;SDS011;4895;50.926;6.870;2023-02-25T09:22:25;28.10;;;5.17;;
9712;SDS011;4895;50.926;6.870;2023-02-25T09:24:51;13.53;;;2.93;;
9712;SDS011;4895;50.926;6.870;2023-02-25T09:27:16;17.77;;;3.03;;
9712;SDS011;4895;50.926;6.870;2023-02-25T09:29:41;20.43;;;3.30;;
9712;SDS011;4895;50.926;6.870;2023-02-25T09:32:14;13.90;;;3.33;;
9712;SDS011;4895;50.926;6.870;2023-02-25T09:34:41;16.27;;;2.80;;
9712;SDS011;4895;50.926;6.870;2023-02-25T09:37:06;22.53;;;3.93;;
9712;SDS011;4895;50.926;6.870;2023-02-25T09:39:33;19.80;;;3.00;;
9712;SDS011;4895;50.926;6.870;2023-02-25T09:52:24;16.60;;;3.20;;
9712;SDS011;4895;50.926;6.870;2023-02-25T09:57:30;18.73;;;3.37;;
9712;SDS011;4895;50.926;6.870;2023-02-25T10:00:00;18.50;;;3.27;;
9712;SDS011;4895;50.926;6.870;2023-02-25T10:03:09;16.13;;;3.33;;
9712;SDS011;4895;50.926;6.870;2023-02-25T10:13:05;24.17;;;4.03;;
9712;SDS011;4895;50.926;6.870;2023-02-25T10:21:27;14.10;;;3.30;;
9712;SDS011;4895;50.926;6.870;2023-02-25T10:24:09;14.57;;;3.50;;
9712;SDS011;4895;50.926;6.870;2023-02-25T10:26:41;19.07;;;3.13;;
9712;SDS011;4895;50.926;6.870;2023-02-25T10:29:12;16.33;;;3.77;;
9712;SDS011;4895;50.926;6.870;2023-02-25T10:31:43;15.43;;;4.40;;
9712;SDS011;4895;50.926;6.870;2023-02-25T10:34:19;13.77;;;4.00;;
9712;SDS011;4895;50.926;6.870;2023-02-25T10:36:47;16.67;;;3.33;;
9712;SDS011;4895;50.926;6.870;2023-02-25T10:39:17;27.13;;;3.73;;
9712;SDS011;4895;50.926;6.870;2023-02-25T10:41:42;18.77;;;4.37;;
9712;SDS011;4895;50.926;6.870;2023-02-25T10:44:09;15.53;;;4.53;;
9712;SDS011;4895;50.926;6.870;2023-02-25T10:46:37;17.47;;;4.93;;
9712;SDS011;4895;50.926;6.870;2023-02-25T10:49:14;15.97;;;4.43;;
9712;SDS011;4895;50.926;6.870;2023-02-25T10:52:00;16.63;;;4.80;;
9712;SDS011;4895;50.926;6.870;2023-02-25T10:54:33;19.80;;;5.80;;
9712;SDS011;4895;50.926;6.870;2023-02-25T10:57:12;16.53;;;4.30;;
9712;SDS011;4895;50.926;6.870;2023-02-25T10:59:42;17.87;;;4.63;;
9712;SDS011;4895;50.926;6.870;2023-02-25T11:02:38;13.10;;;4.77;;
9712;SDS011;4895;50.926;6.870;2023-02-25T11:04:55;23.50;;;5.30;;
9712;SDS011;4895;50.926;6.870;2023-02-25T11:10:06;12.10;;;5.40;;
9712;SDS011;4895;50.926;6.870;2023-02-25T11:12:43;11.97;;;5.10;;
9712;SDS011;4895;50.926;6.870;2023-02-25T11:17:49;5.30;;;3.20;;
9712;SDS011;4895;50.926;6.870;2023-02-25T11:20:20;6.90;;;3.50;;
9712;SDS011;4895;50.926;6.870;2023-02-25T11:22:55;5.73;;;3.30;;
9712;SDS011;4895;50.926;6.870;2023-02-25T11:25:35;7.63;;;2.30;;
9712;SDS011;4895;50.926;6.870;2023-02-25T11:28:04;7.70;;;2.00;;
9712;SDS011;4895;50.926;6.870;2023-02-25T11:30:33;4.20;;;2.07;;
9712;SDS011;4895;50.926;6.870;2023-02-25T11:33:02;12.53;;;2.20;;
9712;SDS011;4895;50.926;6.870;2023-02-25T11:35:31;3.80;;;2.00;;
9712;SDS011;4895;50.926;6.870;2023-02-25T11:38:14;4.00;;;2.20;;
9712;SDS011;4895;50.926;6.870;2023-02-25T11:40:48;5.83;;;2.27;;
9712;SDS011;4895;50.926;6.870;2023-02-25T11:43:18;5.30;;;2.13;;
9712;SDS011;4895;50.926;6.870;2023-02-25T11:46:08;5.33;;;2.00;;
9712;SDS011;4895;50.926;6.870;2023-02-25T11:48:50;3.87;;;2.03;;
9712;SDS011;4895;50.926;6.870;2023-02-25T11:56:37;3.67;;;1.50;;
9712;SDS011;4895;50.926;6.870;2023-02-25T11:59:21;5.63;;;1.80;;
9712;SDS011;4895;50.926;6.870;2023-02-25T12:02:19;3.33;;;1.50;;
9712;SDS011;4895;50.926;6.870;2023-02-25T12:51:27;7.53;;;3.37;;
9712;SDS011;4895;50.926;6.870;2023-02-25T13:07:43;5.43;;;1.90;;
9712;SDS011;4895;50.926;6.870;2023-02-25T13:10:30;4.73;;;1.97;;
9712;SDS011;4895;50.926;6.870;2023-02-25T13:15:51;5.97;;;1.97;;
9712;SDS011;4895;50.926;6.870;2023-02-25T13:24:13;9.17;;;2.40;;
9712;SDS011;4895;50.926;6.870;2023-02-25T13:29:54;10.20;;;2.17;;
9712;SDS011;4895;50.926;6.870;2023-02-25T13:32:28;4.97;;;1.80;;
9712;SDS011;4895;50.926;6.870;2023-02-25T13:37:38;14.53;;;2.20;;
9712;SDS011;4895;50.926;6.870;2023-02-25T13:56:48;10.07;;;2.20;;
9712;SDS011;4895;50.926;6.870;2023-02-25T14:05:44;7.47;;;2.13;;
9712;SDS011;4895;50.926;6.870;2023-02-25T14:11:11;11.70;;;2.73;;
9712;SDS011;4895;50.926;6.870;2023-02-25T14:24:37;8.43;;;2.20;;
9712;SDS011;4895;50.926;6.870;2023-02-25T14:30:02;5.80;;;1.97;;
9712;SDS011;4895;50.926;6.870;2023-02-25T14:45:58;8.40;;;1.97;;
9712;SDS011;4895;50.926;6.870;2023-02-25T14:48:31;10.77;;;2.10;;
9712;SDS011;4895;50.926;6.870;2023-02-25T14:56:24;8.30;;;1.83;;
9712;SDS011;4895;50.926;6.870;2023-02-25T15:04:40;6.13;;;2.00;;
9712;SDS011;4895;50.926;6.870;2023-02-25T15:13:43;8.57;;;1.90;;
9712;SDS011;4895;50.926;6.870;2023-02-25T15:22:21;5.50;;;2.03;;
9712;SDS011;4895;50.926;6.870;2023-02-25T15:24:48;10.23;;;2.30;;
9712;SDS011;4895;50.926;6.870;2023-02-25T15:27:32;7.17;;;2.20;;
9712;SDS011;4895;50.926;6.870;2023-02-25T15:32:45;5.63;;;2.10;;
9712;SDS011;4895;50.926;6.870;2023-02-25T15:35:11;10.13;;;2.40;;
9712;SDS011;4895;50.926;6.870;2023-02-25T15:42:40;9.00;;;2.03;;
9712;SDS011;4895;50.926;6.870;2023-02-25T15:53:52;5.70;;;2.47;;
9712;SDS011;4895;50.926;6.870;2023-02-25T16:06:03;8.33;;;1.87;;
9712;SDS011;4895;50.926;6.870;2023-02-25T16:08:33;4.77;;;2.17;;
9712;SDS011;4895;50.926;6.870;2023-02-25T16:11:01;5.03;;;1.80;;
9712;SDS011;4895;50.926;6.870;2023-02-25T16:13:30;7.40;;;2.43;;
9712;SDS011;4895;50.926;6.870;2023-02-25T16:15:57;7.97;;;1.77;;
9712;SDS011;4895;50.926;6.870;2023-02-25T16:18:42;7.53;;;2.07;;
9712;SDS011;4895;50.926;6.870;2023-02-25T16:21:25;5.63;;;2.10;;
9712;SDS011;4895;50.926;6.870;2023-02-25T16:24:05;6.27;;;2.23;;
9712;SDS011;4895;50.926;6.870;2023-02-25T16:26:37;6.97;;;1.77;;
9712;SDS011;4895;50.926;6.870;2023-02-25T16:29:34;6.37;;;1.83;;
9712;SDS011;4895;50.926;6.870;2023-02-25T16:40:22;8.23;;;2.30;;
9712;SDS011;4895;50.926;6.870;2023-02-25T16:42:50;3.03;;;1.70;;
9712;SDS011;4895;50.926;6.870;2023-02-25T16:45:23;3.10;;;1.27;;
9712;SDS011;4895;50.926;6.870;2023-02-25T16:47:55;5.97;;;1.73;;
9712;SDS011;4895;50.926;6.870;2023-02-25T16:50:22;4.40;;;1.60;;
9712;SDS011;4895;50.926;6.870;2023-02-25T16:52:49;3.90;;;1.53;;
9712;SDS011;4895;50.926;6.870;2023-02-25T16:55:21;4.47;;;1.60;;
9712;SDS011;4895;50.926;6.870;2023-02-25T16:58:02;3.20;;;1.50;;
9712;SDS011;4895;50.926;6.870;2023-02-25T17:00:29;9.47;;;1.73;;
9712;SDS011;4895;50.926;6.870;2023-02-25T17:02:57;4.83;;;1.60;;
9712;SDS011;4895;50.926;6.870;2023-02-25T17:05:26;7.10;;;2.20;;
9712;SDS011;4895;50.926;6.870;2023-02-25T17:07:56;2.80;;;1.67;;
9712;SDS011;4895;50.926;6.870;2023-02-25T17:10:31;6.30;;;2.00;;
9712;SDS011;4895;50.926;6.870;2023-02-25T17:15:26;7.80;;;2.43;;
9712;SDS011;4895;50.926;6.870;2023-02-25T17:18:00;3.33;;;1.63;;
9712;SDS011;4895;50.926;6.870;2023-02-25T17:20:43;5.30;;;1.67;;
9712;SDS011;4895;50.926;6.870;2023-02-25T17:23:10;10.90;;;2.30;;
9712;SDS011;4895;50.926;6.870;2023-02-25T17:25:38;3.80;;;1.80;;
9712;SDS011;4895;50.926;6.870;2023-02-25T17:28:06;4.07;;;1.70;;
9712;SDS011;4895;50.926;6.870;2023-02-25T17:30:42;3.97;;;1.63;;
9712;SDS011;4895;50.926;6.870;2023-02-25T17:33:18;5.47;;;1.80;;
9712;SDS011;4895;50.926;6.870;2023-02-25T17:35:46;3.73;;;1.93;;
9712;SDS011;4895;50.926;6.870;2023-02-25T17:38:14;6.87;;;1.53;;
9712;SDS011;4895;50.926;6.870;2023-02-25T17:40:42;14.97;;;1.90;;
9712;SDS011;4895;50.926;6.870;2023-02-25T17:43:16;4.20;;;1.30;;
9712;SDS011;4895;50.926;6.870;2023-02-25T17:45:47;7.60;;;1.63;;
9712;SDS011;4895;50.926;6.870;2023-02-25T17:48:15;5.23;;;1.50;;
9712;SDS011;4895;50.926;6.870;2023-02-25T17:50:41;8.10;;;1.90;;
9712;SDS011;4895;50.926;6.870;2023-02-25T17:53:13;3.90;;;2.07;;
9712;SDS011;4895;50.926;6.870;2023-02-25T17:55:43;5.93;;;1.60;;
9712;SDS011;4895;50.926;6.870;2023-02-25T17:58:13;5.57;;;1.97;;
9712;SDS011;4895;50.926;6.870;2023-02-25T18:01:05;7.37;;;2.10;;
9712;SDS011;4895;50.926;6.870;2023-02-25T18:03:43;3.73;;;1.80;;
9712;SDS011;4895;50.926;6.870;2023-02-25T18:09:03;5.40;;;1.47;;
9712;SDS011;4895;50.926;6.870;2023-02-25T18:11:33;7.47;;;2.20;;
9712;SDS011;4895;50.926;6.870;2023-02-25T18:14:02;5.23;;;2.10;;
9712;SDS011;4895;50.926;6.870;2023-02-25T18:16:44;9.40;;;2.43;;
9712;SDS011;4895;50.926;6.870;2023-02-25T18:19:30;8.13;;;2.33;;
9712;SDS011;4895;50.926;6.870;2023-02-25T18:22:03;14.30;;;4.50;;
9712;SDS011;4895;50.926;6.870;2023-02-25T18:24:31;7.43;;;2.80;;
9712;SDS011;4895;50.926;6.870;2023-02-25T18:27:14;11.20;;;2.80;;
9712;SDS011;4895;50.926;6.870;2023-02-25T18:29:44;15.13;;;3.80;;
9712;SDS011;4895;50.926;6.870;2023-02-25T18:32:10;9.70;;;4.00;;
9712;SDS011;4895;50.926;6.870;2023-02-25T18:34:35;13.03;;;2.93;;
9712;SDS011;4895;50.926;6.870;2023-02-25T18:37:00;7.90;;;2.10;;
9712;SDS011;4895;50.926;6.870;2023-02-25T18:39:26;4.97;;;2.23;;
9712;SDS011;4895;50.926;6.870;2023-02-25T18:41:52;9.13;;;2.30;;
9712;SDS011;4895;50.926;6.870;2023-02-25T18:44:17;6.20;;;2.13;;
9712;SDS011;4895;50.926;6.870;2023-02-25T18:46:42;3.97;;;1.93;;
9712;SDS011;4895;50.926;6.870;2023-02-25T18:49:08;9.43;;;2.93;;
9712;SDS011;4895;50.926;6.870;2023-02-25T18:51:33;6.43;;;1.70;;
9712;SDS011;4895;50.926;6.870;2023-02-25T18:53:59;5.07;;;2.03;;
9712;SDS011;4895;50.926;6.870;2023-02-25T18:56:24;5.50;;;2.50;;
9712;SDS011;4895;50.926;6.870;2023-02-25T18:58:49;4.20;;;1.57;;
9712;SDS011;4895;50.926;6.870;2023-02-25T19:01:22;6.80;;;2.27;;
9712;SDS011;4895;50.926;6.870;2023-02-25T19:03:49;9.27;;;1.67;;
9712;SDS011;4895;50.926;6.870;2023-02-25T19:06:15;5.87;;;2.10;;
9712;SDS011;4895;50.926;6.870;2023-02-25T19:08:41;4.70;;;2.10;;
9712;SDS011;4895;50.926;6.870;2023-02-25T19:11:08;10.47;;;2.10;;
9712;SDS011;4895;50.926;6.870;2023-02-25T19:13:54;7.17;;;1.90;;
9712;SDS011;4895;50.926;6.870;2023-02-25T19:16:20;4.20;;;1.73;;
9712;SDS011;4895;50.926;6.870;2023-02-25T19:18:46;4.17;;;1.80;;
9712;SDS011;4895;50.926;6.870;2023-02-25T19:21:12;4.43;;;1.70;;
9712;SDS011;4895;50.926;6.870;2023-02-25T19:23:39;6.50;;;1.77;;
9712;SDS011;4895;50.926;6.870;2023-02-25T19:26:05;11.43;;;1.77;;
9712;SDS011;4895;50.926;6.870;2023-02-25T19:28:30;7.10;;;1.83;;
9712;SDS011;4895;50.926;6.870;2023-02-25T19:30:56;5.37;;;1.73;;
9712;SDS011;4895;50.926;6.870;2023-02-25T19:33:21;7.70;;;2.70;;